Time;durP1;ratioP1;P1;durP2;ratioP2;P2;SDS_P1;SDS_P2;PMS_P1;PMS_P2;Temp;Humidity;BMP_temperature;BMP_pressure;BME280_temperature;BME280_humidity;BME280_pressure;Samples;Min_cycle;Max_cycle;Signal;HPM_P1;HPM_P2
2021/05/10 00:01:59;;;;;;;3.35;2.22;;;;;;;17.20;51.43;100542.53;5022412;28;20132;-75
2021/05/10 00:04:25;;;;;;;2.47;2.20;;;;;;;17.21;51.46;100546.88;5019725;28;20107;-75
2021/05/10 00:06:52;;;;;;;2.55;1.90;;;;;;;17.14;51.52;100542.97;5021836;28;20050;-74
2021/05/10 00:09:18;;;;;;;5.70;2.28;;;;;;;17.05;52.12;100543.66;5018140;28;20898;-75
2021/05/10 00:11:44;;;;;;;7.47;3.10;;;;;;;16.98;52.33;100545.03;5020647;28;20493;-77
2021/05/10 00:14:12;;;;;;;3.97;2.13;;;;;;;16.98;52.68;100540.59;5022533;28;20502;-79
2021/05/10 00:16:38;;;;;;;5.15;2.30;;;;;;;17.04;51.56;100547.22;5022523;28;20120;-78
2021/05/10 00:19:05;;;;;;;5.10;2.47;;;;;;;17.06;51.32;100547.97;5020208;28;20041;-80
2021/05/10 00:21:31;;;;;;;5.72;3.33;;;;;;;17.01;52.13;100543.03;5024688;28;20099;-75
2021/05/10 00:23:58;;;;;;;7.10;2.30;;;;;;;17.09;51.96;100545.09;5021356;28;20046;-75
2021/05/10 00:26:24;;;;;;;2.70;2.50;;;;;;;17.01;52.55;100539.56;5020123;28;20113;-75
2021/05/10 00:28:51;;;;;;;4.15;1.90;;;;;;;17.07;52.33;100546.19;5026738;28;20099;-75
2021/05/10 00:31:17;;;;;;;6.28;2.95;;;;;;;17.02;52.31;100541.25;5022471;28;20069;-74
2021/05/10 00:33:43;;;;;;;3.30;2.60;;;;;;;17.05;52.21;100542.81;5020563;28;20045;-75
2021/05/10 00:36:10;;;;;;;3.20;2.20;;;;;;;17.15;52.11;100549.09;5020383;28;20038;-75
2021/05/10 00:38:36;;;;;;;6.60;2.72;;;;;;;17.15;52.08;100547.31;5019468;28;20069;-75
2021/05/10 00:41:03;;;;;;;3.40;2.30;;;;;;;17.11;52.87;100542.38;5016693;28;20069;-76
2021/05/10 00:43:29;;;;;;;5.55;2.75;;;;;;;17.04;53.66;100547.22;5021844;28;20046;-75
2021/05/10 00:45:55;;;;;;;4.47;2.33;;;;;;;16.97;54.23;100552.09;5038651;28;20037;-75
2021/05/10 00:48:22;;;;;;;4.70;2.30;;;;;;;16.91;53.96;100557.81;5022156;28;20054;-74
2021/05/10 00:50:48;;;;;;;2.85;2.65;;;;;;;16.90;53.81;100548.22;5020483;28;20504;-80
2021/05/10 00:53:15;;;;;;;5.85;3.03;;;;;;;16.91;54.18;100547.28;5022105;28;20045;-79
2021/05/10 00:55:41;;;;;;;9.43;2.70;;;;;;;16.90;54.61;100547.41;5022353;28;20127;-79
2021/05/10 00:58:07;;;;;;;5.57;3.08;;;;;;;16.89;54.46;100551.00;5022569;28;20073;-79
2021/05/10 01:00:38;;;;;;;7.20;3.88;;;;;;;16.88;54.48;100565.06;5021466;28;20115;-75
2021/05/10 01:03:05;;;;;;;4.53;2.58;;;;;;;16.48;55.53;100560.81;5020340;28;20041;-77
2021/05/10 01:05:32;;;;;;;6.60;3.40;;;;;;;16.11;57.04;100559.88;5022571;28;20060;-76
2021/05/10 01:07:59;;;;;;;6.32;2.72;;;;;;;15.92;57.73;100557.63;5024028;28;20115;-77
2021/05/10 01:10:26;;;;;;;5.93;2.55;;;;;;;15.90;57.98;100554.25;5025668;28;20507;-75
2021/05/10 01:12:52;;;;;;;5.50;3.88;;;;;;;16.20;57.24;100553.16;5024513;28;20436;-76
2021/05/10 01:15:23;;;;;;;4.53;2.97;;;;;;;16.17;57.35;100548.91;5025802;28;20448;-75
2021/05/10 01:17:52;;;;;;;6.60;3.33;;;;;;;16.25;57.24;100553.66;5020650;28;20481;-75
2021/05/10 01:20:22;;;;;;;5.22;3.63;;;;;;;16.32;56.96;100551.44;5027753;28;20111;-76
2021/05/10 01:22:54;;;;;;;10.07;5.00;;;;;;;16.39;56.65;100544.81;5025264;28;20126;-76
2021/05/10 01:25:23;;;;;;;6.32;4.25;;;;;;;16.41;56.54;100548.19;5025908;28;20420;-76
2021/05/10 01:27:50;;;;;;;5.68;5.05;;;;;;;16.39;56.85;100535.13;5023030;28;20057;-75
2021/05/10 01:30:23;;;;;;;8.18;5.25;;;;;;;16.40;57.12;100520.19;5025891;28;20499;-74
2021/05/10 01:32:51;;;;;;;5.15;3.95;;;;;;;16.47;56.85;100524.09;5024796;28;20119;-75
2021/05/10 01:35:24;;;;;;;7.47;4.20;;;;;;;16.37;56.86;100520.41;5025438;28;20495;-80
2021/05/10 01:37:50;;;;;;;4.85;3.50;;;;;;;16.27;57.06;100520.19;5025955;28;20041;-80
2021/05/10 01:40:17;;;;;;;8.95;3.30;;;;;;;16.31;56.67;100515.56;5027382;28;20472;-81
2021/05/10 01:42:44;;;;;;;5.75;4.15;;;;;;;16.22;56.63;100517.88;5024781;28;20063;-80
2021/05/10 01:45:11;;;;;;;5.82;3.38;;;;;;;16.16;56.87;100507.78;5028395;28;20037;-81
2021/05/10 01:47:37;;;;;;;8.63;4.78;;;;;;;16.12;57.04;100502.84;5025544;28;20116;-80
2021/05/10 01:50:12;;;;;;;7.10;3.60;;;;;;;16.16;57.20;100499.91;5024360;28;20050;-81
2021/05/10 01:52:38;;;;;;;;;;;;;;;16.23;56.98;100488.00;5027055;28;20127;-81
2021/05/10 01:55:06;;;;;;;4.57;4.07;;;;;;;16.26;56.84;100488.75;5025935;28;19957;-81
2021/05/10 01:57:33;;;;;;;5.72;3.95;;;;;;;16.08;57.27;100498.75;5023184;28;20519;-75
2021/05/10 01:59:59;;;;;;;4.65;4.22;;;;;;;16.01;57.60;100492.22;5026454;28;20042;-76
2021/05/10 02:02:26;;;;;;;5.80;4.90;;;;;;;16.05;57.53;100489.28;5024962;28;20033;-75
2021/05/10 02:05:29;;;;;;;8.15;4.90;;;;;;;16.11;57.53;100480.13;5020158;28;20052;-79
2021/05/10 02:07:58;;;;;;;5.28;4.78;;;;;;;16.02;57.99;100480.75;4984117;28;20565;-81
2021/05/10 02:10:31;;;;;;;9.88;5.55;;;;;;;15.99;57.99;100468.69;5014609;28;20133;-80
2021/05/10 02:13:01;;;;;;;8.75;4.82;;;;;;;15.94;58.19;100449.75;5024595;28;20128;-81
2021/05/10 02:15:31;;;;;;;9.15;4.93;;;;;;;15.97;58.07;100439.00;5024720;28;20132;-80
2021/05/10 02:17:58;;;;;;;4.63;4.13;;;;;;;16.01;58.12;100440.47;5027199;28;20087;-81
2021/05/10 02:20:27;;;;;;;5.45;4.18;;;;;;;16.02;58.10;100442.16;5027013;28;20045;-81
2021/05/10 02:22:58;;;;;;;5.90;3.92;;;;;;;16.03;58.13;100443.81;5029661;28;20057;-81
2021/05/10 02:25:34;;;;;;;5.55;4.22;;;;;;;15.93;58.79;100432.28;5025353;28;20041;-81
2021/05/10 02:28:01;;;;;;;4.97;4.47;;;;;;;16.09;58.14;100432.06;5025589;28;20874;-81
2021/05/10 02:30:31;;;;;;;6.30;5.15;;;;;;;16.06;58.09;100427.00;5025597;28;20096;-77
2021/05/10 02:33:00;;;;;;;8.88;5.72;;;;;;;15.91;58.35;100421.03;5027418;28;20163;-76
2021/05/10 02:35:26;;;;;;;6.60;5.38;;;;;;;15.97;58.41;100428.47;5021724;28;20144;-76
2021/05/10 02:37:55;;;;;;;5.88;5.30;;;;;;;15.98;58.19;100438.91;5023303;28;20052;-76
2021/05/10 02:40:22;;;;;;;7.00;5.30;;;;;;;16.07;57.88;100442.69;5023578;28;20568;-76
2021/05/10 02:42:49;;;;;;;6.28;4.93;;;;;;;16.01;58.28;100432.59;5021996;28;20041;-77
2021/05/10 02:45:16;;;;;;;7.38;5.43;;;;;;;15.95;58.52;100420.72;5021794;28;20053;-76
2021/05/10 02:47:44;;;;;;;6.28;5.50;;;;;;;15.92;58.21;100414.81;5019766;28;20073;-76
2021/05/10 02:50:20;;;;;;;8.05;5.63;;;;;;;15.89;58.50;100425.56;5024378;28;20137;-77
2021/05/10 02:52:47;;;;;;;8.50;5.03;;;;;;;15.87;58.80;100422.19;5022106;28;20037;-77
2021/05/10 02:55:14;;;;;;;5.93;5.30;;;;;;;15.95;58.46;100422.50;5027093;28;20137;-75
2021/05/10 02:57:41;;;;;;;5.57;4.85;;;;;;;15.88;58.92;100426.50;5025487;28;20037;-73
2021/05/10 03:00:10;;;;;;;6.32;5.05;;;;;;;15.82;59.13;100425.16;5024714;28;20037;-76
2021/05/10 03:02:36;;;;;;;4.60;4.20;;;;;;;15.87;58.95;100422.19;5024070;28;20068;-75
2021/05/10 03:05:04;;;;;;;12.68;5.30;;;;;;;15.86;59.09;100425.75;5026035;28;20045;-76
2021/05/10 03:07:32;;;;;;;7.85;5.10;;;;;;;15.91;58.96;100429.75;5019229;28;20371;-76
2021/05/10 03:09:58;;;;;;;7.35;4.22;;;;;;;15.82;59.40;100433.03;5026031;28;20065;-73
2021/05/10 03:12:26;;;;;;;6.18;3.90;;;;;;;15.81;59.39;100444.47;5023010;28;20069;-73
2021/05/10 03:14:53;;;;;;;7.60;4.45;;;;;;;15.85;59.39;100450.38;5022995;28;20049;-74
2021/05/10 03:17:19;;;;;;;9.57;4.47;;;;;;;15.75;59.73;100444.06;5021205;28;20121;-74
2021/05/10 03:19:46;;;;;;;6.43;4.03;;;;;;;15.67;59.86;100442.81;5026479;28;20092;-74
2021/05/10 03:22:13;;;;;;;3.88;3.38;;;;;;;15.67;60.15;100441.97;5024409;28;20072;-74
2021/05/10 03:24:40;;;;;;;8.38;4.20;;;;;;;15.67;60.07;100448.06;5018556;28;20076;-74
2021/05/10 03:27:07;;;;;;;7.43;4.45;;;;;;;15.64;60.32;100450.88;5023471;28;20091;-74
2021/05/10 03:29:33;;;;;;;5.95;4.57;;;;;;;15.59;60.76;100454.75;5023082;28;20653;-74
2021/05/10 03:32:00;;;;;;;5.85;4.60;;;;;;;15.65;60.39;100455.19;5018804;28;20104;-74
2021/05/10 03:34:27;;;;;;;5.25;3.17;;;;;;;15.66;60.46;100456.06;5020619;28;20049;-75
2021/05/10 03:36:53;;;;;;;6.50;4.45;;;;;;;15.61;60.56;100458.97;5017617;28;20041;-75
2021/05/10 03:39:19;;;;;;;6.65;3.45;;;;;;;15.57;60.81;100462.72;5037219;28;20460;-74
2021/05/10 03:41:46;;;;;;;5.95;4.47;;;;;;;15.56;61.05;100460.22;5023463;28;20346;-74
2021/05/10 03:44:12;;;;;;;6.90;4.32;;;;;;;15.58;60.82;100466.19;5021635;28;20057;-75
2021/05/10 03:46:39;;;;;;;5.60;4.85;;;;;;;15.57;60.95;100468.00;5022672;28;20037;-75
2021/05/10 03:49:05;;;;;;;5.88;4.88;;;;;;;15.55;61.19;100487.41;5028626;28;20053;-70
2021/05/10 03:51:33;;;;;;;6.25;5.60;;;;;;;15.50;61.25;100484.25;5024432;28;20044;-70
2021/05/10 03:54:00;;;;;;;8.40;6.43;;;;;;;15.56;61.02;100486.50;5020153;28;20077;-70
2021/05/10 03:56:26;;;;;;;9.52;8.38;;;;;;;15.63;60.85;100491.25;5026924;28;20041;-70
2021/05/10 03:58:53;;;;;;;9.98;7.63;;;;;;;15.51;61.57;100509.59;5021405;28;20495;-70
2021/05/10 04:01:19;;;;;;;7.50;6.80;;;;;;;15.48;61.51;100517.69;5022336;28;20754;-70
2021/05/10 04:04:14;;;;;;;7.47;6.38;;;;;;;15.51;61.21;100517.47;5022476;28;20133;-71
2021/05/10 04:09:38;;;;;;;7.15;6.28;;;;;;;15.49;61.46;100532.47;5023251;28;20129;-71
2021/05/10 04:14:52;;;;;;;8.68;6.10;;;;;;;15.45;61.52;100537.97;5023768;28;20041;-71
2021/05/10 04:17:19;;;;;;;14.40;7.53;;;;;;;15.46;61.60;100551.94;5017135;28;20068;-70
2021/05/10 04:19:45;;;;;;;8.45;5.78;;;;;;;15.49;61.70;100558.75;5019637;28;20045;-70
2021/05/10 04:22:12;;;;;;;9.95;4.95;;;;;;;15.49;61.48;100559.59;5020076;28;20116;-69
2021/05/10 04:24:38;;;;;;;8.43;5.53;;;;;;;15.56;61.24;100554.81;5022794;28;20079;-69
2021/05/10 04:27:05;;;;;;;11.35;5.72;;;;;;;15.54;61.33;100554.88;5025200;28;20053;-70
2021/05/10 04:29:32;;;;;;;8.15;5.82;;;;;;;15.52;61.43;100563.81;5021235;28;20038;-69
2021/05/10 04:31:58;;;;;;;5.70;4.50;;;;;;;15.49;61.44;100564.00;5023265;28;20460;-70
2021/05/10 04:34:25;;;;;;;8.95;3.97;;;;;;;15.53;61.31;100561.09;5021991;28;20061;-69
2021/05/10 04:36:51;;;;;;;6.18;4.07;;;;;;;15.58;61.22;100564.25;5023842;28;20137;-70
2021/05/10 04:39:18;;;;;;;9.65;4.20;;;;;;;15.60;61.05;100562.34;5021603;28;20132;-70
2021/05/10 04:41:46;;;;;;;7.97;4.43;;;;;;;15.60;61.32;100572.88;5019660;28;20052;-68
2021/05/10 04:44:12;;;;;;;5.20;3.92;;;;;;;15.67;61.21;100573.38;5024307;28;20126;-71
2021/05/10 04:46:38;;;;;;;7.78;3.88;;;;;;;15.75;61.08;100575.47;5026980;28;20550;-71
2021/05/10 04:49:05;;;;;;;6.93;3.72;;;;;;;15.91;60.69;100578.75;5030975;28;20473;-71
2021/05/10 04:51:31;;;;;;;7.13;3.92;;;;;;;16.00;60.25;100585.22;5032220;28;20045;-71
2021/05/10 04:53:58;;;;;;;6.75;3.95;;;;;;;16.14;59.98;100569.31;5030770;28;20440;-75
2021/05/10 04:56:24;;;;;;;10.95;4.03;;;;;;;16.32;59.41;100564.59;5032505;28;20403;-73
2021/05/10 04:58:50;;;;;;;6.13;5.15;;;;;;;16.41;59.72;100570.09;5031876;28;20045;-72
2021/05/10 05:01:17;;;;;;;5.65;5.07;;;;;;;16.66;59.20;100563.09;5031211;28;20033;-73
2021/05/10 05:03:43;;;;;;;6.38;4.03;;;;;;;16.97;58.18;100565.25;5031760;28;20041;-73
2021/05/10 05:06:10;;;;;;;6.47;3.80;;;;;;;17.31;57.34;100569.88;5032268;28;20058;-74
2021/05/10 05:08:36;;;;;;;5.32;4.65;;;;;;;17.45;56.74;100567.94;5032159;28;20124;-75
2021/05/10 05:11:02;;;;;;;8.32;4.25;;;;;;;17.56;56.62;100572.41;5032188;28;20068;-75
2021/05/10 05:13:30;;;;;;;5.90;4.53;;;;;;;17.75;55.78;100567.50;5031640;28;20095;-75
2021/05/10 05:15:57;;;;;;;9.07;5.03;;;;;;;17.96;55.15;100557.13;5031930;28;20046;-75
2021/05/10 05:18:23;;;;;;;5.95;4.80;;;;;;;18.02;54.28;100542.63;5031964;28;20107;-75
2021/05/10 05:20:50;;;;;;;8.80;4.47;;;;;;;18.49;53.32;100551.31;5032161;28;20073;-74
2021/05/10 05:23:18;;;;;;;5.72;5.05;;;;;;;17.84;54.73;100551.91;5031239;28;20084;-74
2021/05/10 05:25:45;;;;;;;5.57;4.50;;;;;;;17.54;56.29;100554.06;5031215;28;20038;-73
2021/05/10 05:28:11;;;;;;;9.52;4.78;;;;;;;17.67;55.78;100554.00;5031972;28;20038;-78
2021/05/10 05:30:37;;;;;;;7.50;4.53;;;;;;;18.11;54.85;100552.50;5028343;28;20048;-76
2021/05/10 05:33:05;;;;;;;11.07;4.57;;;;;;;18.84;53.07;100556.47;5030507;28;20068;-76
2021/05/10 05:35:31;;;;;;;6.15;4.25;;;;;;;19.22;51.83;100563.94;5031160;28;20038;-74
2021/05/10 05:37:58;;;;;;;8.45;4.50;;;;;;;19.61;50.74;100572.28;5028963;28;20092;-73
2021/05/10 05:40:24;;;;;;;8.07;4.53;;;;;;;19.73;50.09;100573.91;5037903;28;20045;-76
2021/05/10 05:42:51;;;;;;;5.57;4.30;;;;;;;19.36;51.09;100568.13;5030929;28;20072;-77
2021/05/10 05:45:17;;;;;;;7.95;5.07;;;;;;;19.65;49.89;100560.47;5022496;28;20208;-71
2021/05/10 05:47:44;;;;;;;16.17;5.38;;;;;;;19.73;50.29;100551.91;5014698;28;20049;-70
2021/05/10 05:50:11;;;;;;;4.60;4.10;;;;;;;19.38;50.46;100551.16;5024767;28;20140;-70
2021/05/10 05:52:38;;;;;;;6.15;5.13;;;;;;;19.19;51.12;100564.22;5020521;28;20065;-73
2021/05/10 05:55:05;;;;;;;9.75;5.43;;;;;;;19.68;50.08;100564.66;5032080;28;20046;-74
2021/05/10 05:57:32;;;;;;;8.55;4.78;;;;;;;20.14;49.54;100572.25;5032973;28;20076;-74
2021/05/10 06:00:01;;;;;;;4.72;4.10;;;;;;;20.63;47.90;100570.69;5030707;28;20456;-71
2021/05/10 06:02:28;;;;;;;11.75;4.68;;;;;;;20.34;48.29;100567.88;5029180;28;20051;-71
2021/05/10 06:04:55;;;;;;;29.58;5.57;;;;;;;20.23;48.56;100574.09;5033598;28;20511;-71
2021/05/10 06:07:50;;;;;;;8.85;4.80;;;;;;;20.82;47.79;100581.34;5034833;28;20048;-70
2021/05/10 06:10:22;;;;;;;5.35;4.45;;;;;;;21.47;46.35;100586.28;5034498;28;20037;-71
2021/05/10 06:12:51;;;;;;;7.32;5.32;;;;;;;21.23;46.42;100587.47;5034934;28;20053;-71
2021/05/10 06:15:20;;;;;;;13.00;5.05;;;;;;;21.77;45.73;100588.78;5033907;28;20041;-71
2021/05/10 06:17:47;;;;;;;5.28;4.78;;;;;;;22.16;44.60;100591.44;5034477;28;20120;-71
2021/05/10 06:20:16;;;;;;;5.30;4.80;;;;;;;22.58;43.92;100596.31;5033586;28;20562;-70
2021/05/10 06:22:43;;;;;;;6.65;4.70;;;;;;;22.16;43.95;100592.28;5034575;28;20080;-69
2021/05/10 06:25:14;;;;;;;8.00;5.43;;;;;;;22.77;43.21;100601.56;5033403;28;20129;-72
2021/05/10 06:27:41;;;;;;;4.35;3.95;;;;;;;22.86;43.85;100607.84;5031894;28;20046;-69
2021/05/10 06:30:10;;;;;;;7.68;4.35;;;;;;;23.31;42.90;100607.88;5027355;28;20042;-71
2021/05/10 06:32:38;;;;;;;7.18;4.75;;;;;;;24.07;41.39;100607.41;5033022;28;20050;-70
2021/05/10 06:35:05;;;;;;;9.38;4.80;;;;;;;23.82;41.37;100614.41;5033558;28;20069;-69
2021/05/10 06:37:32;;;;;;;7.82;4.63;;;;;;;23.51;42.17;100608.59;5034405;28;20096;-70
2021/05/10 06:39:59;;;;;;;7.75;5.20;;;;;;;24.46;40.68;100601.72;5034539;28;20452;-71
2021/05/10 06:42:26;;;;;;;6.90;5.05;;;;;;;24.25;40.96;100602.91;5033848;28;20048;-71
2021/05/10 06:44:54;;;;;;;6.63;5.03;;;;;;;24.77;40.24;100607.41;5032296;28;20042;-72
2021/05/10 06:47:21;;;;;;;9.35;4.78;;;;;;;25.17;38.88;100608.56;5033777;28;20053;-71
2021/05/10 06:49:48;;;;;;;7.22;4.22;;;;;;;25.14;38.33;100599.06;5033673;28;20057;-71
2021/05/10 06:52:15;;;;;;;10.23;5.68;;;;;;;24.98;38.36;100594.47;5033136;28;20057;-72
2021/05/10 06:54:41;;;;;;;9.93;5.28;;;;;;;25.52;36.94;100602.16;5033991;28;20053;-72
2021/05/10 06:57:08;;;;;;;9.60;4.65;;;;;;;25.57;37.43;100597.97;5033012;28;20096;-73
2021/05/10 06:59:34;;;;;;;10.88;5.65;;;;;;;26.05;36.94;100590.16;5033615;28;20438;-73
2021/05/10 07:02:01;;;;;;;29.00;7.18;;;;;;;26.39;35.83;100587.25;5032507;28;20057;-72
2021/05/10 07:04:27;;;;;;;12.07;4.90;;;;;;;25.91;36.48;100594.34;5033582;28;20046;-71
2021/05/10 07:06:54;;;;;;;10.27;5.68;;;;;;;25.45;36.76;100595.78;5033357;28;20069;-71
2021/05/10 07:09:21;;;;;;;8.38;5.32;;;;;;;25.36;37.82;100592.28;5033133;28;20137;-71
2021/05/10 07:11:48;;;;;;;10.20;5.90;;;;;;;25.24;36.75;100594.41;5033586;28;20488;-73
2021/05/10 07:14:14;;;;;;;9.65;6.00;;;;;;;25.79;36.23;100593.00;5033004;28;20065;-74
2021/05/10 07:16:41;;;;;;;5.82;5.22;;;;;;;26.04;35.80;100591.13;5033489;28;20045;-74
2021/05/10 07:19:08;;;;;;;5.78;4.68;;;;;;;26.53;34.69;100589.25;5033563;28;20046;-72
2021/05/10 07:21:36;;;;;;;5.15;4.53;;;;;;;26.90;34.36;100593.13;5033441;28;20071;-74
2021/05/10 07:24:03;;;;;;;13.60;5.80;;;;;;;27.06;34.11;100585.03;5032475;28;20071;-72
2021/05/10 07:26:29;;;;;;;10.80;5.50;;;;;;;26.16;34.74;100575.63;5028699;28;20073;-73
2021/05/10 07:28:56;;;;;;;7.07;5.95;;;;;;;26.76;34.79;100577.81;5033072;28;20477;-72
2021/05/10 07:31:23;;;;;;;10.20;5.13;;;;;;;26.04;35.36;100578.63;5031381;28;20053;-74
2021/05/10 07:33:50;;;;;;;6.85;5.82;;;;;;;26.06;35.00;100575.81;5032752;28;20142;-71
2021/05/10 07:36:16;;;;;;;10.70;5.32;;;;;;;26.83;34.54;100570.75;5032840;28;20369;-73
2021/05/10 07:38:42;;;;;;;6.60;4.63;;;;;;;27.19;33.76;100575.59;5032750;28;20121;-72
2021/05/10 07:41:09;;;;;;;10.68;5.10;;;;;;;27.76;32.46;100562.66;5032347;28;20064;-74
2021/05/10 07:43:35;;;;;;;10.23;7.15;;;;;;;27.88;31.80;100568.41;5022843;28;20457;-73
2021/05/10 07:46:02;;;;;;;15.93;7.32;;;;;;;27.58;32.18;100575.50;5026638;28;20072;-72
2021/05/10 07:48:30;;;;;;;12.82;6.20;;;;;;;28.09;31.38;100575.75;5027783;28;20041;-70
2021/05/10 07:50:56;;;;;;;8.43;5.40;;;;;;;28.52;30.91;100566.09;5022968;28;20103;-71
2021/05/10 07:53:23;;;;;;;5.43;4.22;;;;;;;28.93;30.95;100554.84;5020020;28;20080;-70
2021/05/10 07:55:50;;;;;;;5.05;4.65;;;;;;;29.34;30.27;100559.63;5032510;28;20048;-70
2021/05/10 07:58:26;;;;;;;19.92;6.63;;;;;;;29.51;29.30;100542.28;5031416;28;20068;-71
2021/05/10 08:01:00;;;;;;;7.15;5.07;;;;;;;28.69;29.26;100532.69;5032200;28;20052;-74
2021/05/10 08:03:29;;;;;;;12.80;6.05;;;;;;;28.38;30.97;100529.38;5032549;28;20044;-71
2021/05/10 08:05:56;;;;;;;6.25;4.80;;;;;;;27.97;31.45;100532.50;5031430;28;20095;-72
2021/05/10 08:08:23;;;;;;;6.30;5.70;;;;;;;28.69;30.00;100530.00;5031279;28;20065;-73
2021/05/10 08:10:51;;;;;;;8.07;5.78;;;;;;;27.68;32.23;100531.38;5032284;28;20084;-72
2021/05/10 08:13:18;;;;;;;8.00;5.90;;;;;;;27.39;32.69;100526.78;5031600;28;20049;-72
2021/05/10 08:15:45;;;;;;;8.45;4.85;;;;;;;28.29;31.21;100514.41;5017164;28;20464;-71
2021/05/10 08:18:12;;;;;;;8.07;4.45;;;;;;;28.48;30.83;100521.91;5023277;28;21917;-71
2021/05/10 08:20:40;;;;;;;13.57;5.50;;;;;;;28.48;30.76;100508.50;5031516;28;20373;-72
2021/05/10 08:23:07;;;;;;;7.18;5.07;;;;;;;28.50;30.38;100511.84;5031458;28;20045;-72
2021/05/10 08:25:34;;;;;;;9.68;6.68;;;;;;;29.02;29.11;100505.44;5031629;28;20500;-70
2021/05/10 08:28:01;;;;;;;8.52;4.93;;;;;;;28.84;30.01;100499.63;5021637;28;20046;-70
2021/05/10 08:30:27;;;;;;;5.68;4.50;;;;;;;29.45;28.28;100502.72;5026269;28;20048;-70
2021/05/10 08:32:57;;;;;;;13.35;5.22;;;;;;;28.92;28.90;100496.81;5028423;28;20037;-71
2021/05/10 08:35:25;;;;;;;5.65;5.05;;;;;;;28.60;29.10;100498.94;5030859;28;20587;-71
2021/05/10 08:37:58;;;;;;;21.00;5.28;;;;;;;27.85;30.66;100494.59;5030163;28;20404;-72
2021/05/10 08:40:24;;;;;;;7.82;4.95;;;;;;;27.88;30.36;100488.06;5019717;28;20048;-73
2021/05/10 08:42:50;;;;;;;13.55;7.40;;;;;;;27.79;31.17;100494.50;5024469;28;20045;-72
2021/05/10 08:45:19;;;;;;;9.63;5.82;;;;;;;28.13;31.43;100485.94;5023661;28;20519;-73
2021/05/10 08:47:47;;;;;;;14.55;7.07;;;;;;;28.34;31.61;100483.38;5025706;28;20061;-73
2021/05/10 08:50:14;;;;;;;10.20;6.18;;;;;;;27.73;31.73;100489.88;5030712;28;20053;-71
2021/05/10 08:52:42;;;;;;;9.45;6.25;;;;;;;27.64;31.61;100486.41;5021510;28;20072;-73
2021/05/10 08:55:13;;;;;;;12.85;6.22;;;;;;;28.00;30.83;100489.25;5024479;28;20100;-73
2021/05/10 08:57:40;;;;;;;10.68;6.07;;;;;;;28.25;30.80;100494.34;5022208;28;20053;-72
2021/05/10 09:00:10;;;;;;;9.15;5.78;;;;;;;28.36;30.73;100501.94;5016172;28;20037;-72
2021/05/10 09:02:37;;;;;;;7.38;6.05;;;;;;;28.43;30.58;100501.00;5017805;28;20437;-71
2021/05/10 09:05:14;;;;;;;6.80;6.20;;;;;;;27.53;31.73;100497.53;5018003;28;20050;-72
2021/05/10 09:07:42;;;;;;;12.70;8.50;;;;;;;26.90;34.84;100489.63;5016892;28;20045;-71
2021/05/10 09:10:12;;;;;;;7.68;6.05;;;;;;;27.39;33.92;100485.81;5019005;28;20051;-70
2021/05/10 09:12:44;;;;;;;13.70;7.22;;;;;;;27.24;32.38;100480.41;5014737;28;20136;-71
2021/05/10 09:15:21;;;;;;;8.18;6.93;;;;;;;26.73;35.16;100476.53;5016295;28;20038;-71
2021/05/10 09:17:56;;;;;;;9.90;7.43;;;;;;;26.09;35.29;100476.59;5023116;28;20042;-71
2021/05/10 09:20:33;;;;;;;11.68;6.65;;;;;;;26.69;34.26;100480.56;5027144;28;20103;-70
2021/05/10 09:23:01;;;;;;;14.65;7.85;;;;;;;26.54;34.82;100478.63;5031471;28;20049;-71
2021/05/10 09:25:42;;;;;;;8.68;6.53;;;;;;;26.48;35.35;100475.84;5030755;28;20125;-71
2021/05/10 09:28:12;;;;;;;11.05;6.13;;;;;;;26.59;34.70;100465.56;5032527;28;20053;-70
2021/05/10 09:30:45;;;;;;;11.98;7.25;;;;;;;26.10;35.89;100467.59;5022571;28;20172;-71
2021/05/10 09:33:22;;;;;;;12.20;8.15;;;;;;;25.88;36.76;100455.78;5026254;28;20045;-71
2021/05/10 09:35:50;;;;;;;30.35;8.65;;;;;;;25.90;36.52;100450.31;5024919;28;20103;-71
2021/05/10 09:38:20;;;;;;;20.65;8.00;;;;;;;25.65;38.09;100438.78;5026349;28;20046;-71
2021/05/10 09:40:53;;;;;;;12.90;7.25;;;;;;;25.52;38.67;100450.84;5019600;28;20065;-71
2021/05/10 09:43:22;;;;;;;8.75;5.78;;;;;;;25.51;38.32;100454.47;5025499;28;20049;-71
2021/05/10 09:45:57;;;;;;;10.82;6.72;;;;;;;25.48;38.46;100449.50;5021639;28;20057;-71
2021/05/10 09:48:28;;;;;;;8.75;6.85;;;;;;;25.25;38.38;100449.34;5027167;28;20038;-70
2021/05/10 09:50:56;;;;;;;10.05;5.55;;;;;;;25.38;38.49;100448.84;5028862;28;20488;-70
2021/05/10 09:53:48;;;;;;;12.48;6.50;;;;;;;25.28;38.45;100449.00;5033485;28;20511;-71
2021/05/10 09:58:58;;;;;;;14.60;6.00;;;;;;;24.96;40.13;100463.13;5034382;28;20542;-70
2021/05/10 10:01:41;;;;;;;11.10;6.90;;;;;;;24.93;40.41;100462.59;5028926;28;20484;-70
2021/05/10 10:04:08;;;;;;;7.28;6.57;;;;;;;24.68;40.45;100461.75;5033846;28;20048;-72
2021/05/10 10:06:34;;;;;;;9.23;6.32;;;;;;;24.87;40.33;100455.25;5034880;28;20046;-74
2021/05/10 10:09:01;;;;;;;14.10;6.30;;;;;;;25.05;39.83;100448.81;5035237;28;20382;-74
2021/05/10 10:11:27;;;;;;;11.50;7.63;;;;;;;25.10;39.83;100447.50;5034987;28;20575;-75
2021/05/10 10:13:56;;;;;;;12.85;7.05;;;;;;;25.10;40.84;100444.84;5033813;28;20089;-83
2021/05/10 10:16:28;;;;;;;12.48;8.43;;;;;;;24.66;41.99;100439.72;5034043;28;20049;-75
2021/05/10 10:18:59;;;;;;;9.20;6.63;;;;;;;24.69;43.09;100434.91;5033815;28;20461;-75
2021/05/10 10:21:27;;;;;;;7.07;6.28;;;;;;;24.73;41.64;100436.25;5034127;28;20124;-74
2021/05/10 10:24:02;;;;;;;8.82;5.80;;;;;;;24.80;42.25;100429.25;5034452;28;20089;-72
2021/05/10 10:26:52;;;;;;;8.10;5.93;;;;;;;24.58;42.98;100423.72;5029817;28;20408;-73
2021/05/10 10:29:20;;;;;;;9.63;5.30;;;;;;;24.42;42.75;100411.19;5034186;28;20125;-74
2021/05/10 10:31:49;;;;;;;8.95;4.75;;;;;;;24.84;42.60;100413.78;5034425;28;20083;-76
2021/05/10 10:34:40;;;;;;;11.27;6.50;;;;;;;24.66;42.60;100426.41;5025807;28;20127;-72
2021/05/10 10:37:07;;;;;;;5.00;4.60;;;;;;;24.84;42.14;100413.78;5023341;28;20128;-72
2021/05/10 10:39:33;;;;;;;13.50;6.93;;;;;;;24.47;42.79;100419.53;5020835;28;20120;-72
2021/05/10 10:42:02;;;;;;;6.03;4.60;;;;;;;24.68;42.63;100417.25;5019644;28;20120;-74
2021/05/10 12:05:02;;;;;;;7.70;3.90;;;;;;;24.53;43.67;100326.44;5081842;27;20454;-72
2021/05/10 12:07:30;;;;;;;7.10;3.47;;;;;;;24.64;43.99;100321.78;5068217;28;20037;-72
2021/05/10 12:10:01;;;;;;;7.53;3.95;;;;;;;24.66;43.42;100319.78;5069384;28;20122;-73
2021/05/10 12:12:39;;;;;;;4.03;3.30;;;;;;;24.68;43.25;100317.81;5068322;28;20062;-74
2021/05/10 12:15:20;;;;;;;6.15;3.53;;;;;;;24.72;42.59;100321.81;5064101;28;20045;-76
2021/05/10 12:17:51;;;;;;;7.95;3.20;;;;;;;24.85;42.72;100314.13;5071424;28;20048;-76
2021/05/10 12:20:23;;;;;;;8.48;4.40;;;;;;;24.91;42.03;100310.78;5071383;28;20045;-75
2021/05/10 12:23:00;;;;;;;5.05;3.58;;;;;;;25.01;40.73;100307.94;5068995;28;20197;-80
2021/05/10 12:25:31;;;;;;;6.00;3.45;;;;;;;25.03;41.52;100304.09;5064252;28;20048;-80
2021/05/10 12:28:14;;;;;;;12.77;3.08;;;;;;;25.04;42.25;100294.28;5067831;28;20376;-75
2021/05/10 12:30:49;;;;;;;4.63;3.10;;;;;;;25.10;41.96;100292.81;5069113;28;20065;-76
2021/05/10 12:33:23;;;;;;;6.25;2.65;;;;;;;25.07;42.39;100292.13;5065744;28;20052;-78
2021/05/10 12:36:03;;;;;;;3.38;2.50;;;;;;;25.22;43.06;100283.44;5068183;28;20057;-76
2021/05/10 12:38:42;;;;;;;3.70;2.40;;;;;;;25.11;42.61;100294.47;5068785;28;20551;-76
2021/05/10 12:41:20;;;;;;;7.07;3.20;;;;;;;25.22;43.06;100283.44;5069693;28;20462;-74
2021/05/10 12:43:48;;;;;;;5.57;3.80;;;;;;;25.20;42.43;100291.63;5067271;28;20155;-74
2021/05/10 12:46:21;;;;;;;4.65;2.78;;;;;;;25.19;41.47;100279.25;5063110;28;20040;-80
2021/05/10 12:48:49;;;;;;;3.05;2.28;;;;;;;25.15;42.00;100275.28;5066105;28;20037;-77
2021/05/10 12:51:23;;;;;;;7.82;3.40;;;;;;;25.16;42.41;100274.28;5059438;28;20047;-78
2021/05/10 12:54:02;;;;;;;3.38;2.38;;;;;;;25.26;41.95;100272.25;5060526;28;20041;-76
2021/05/10 12:56:31;;;;;;;6.00;2.90;;;;;;;25.27;42.55;100263.25;5062142;28;20102;-78
2021/05/10 12:59:01;;;;;;;3.85;2.60;;;;;;;25.31;43.66;100255.75;5053300;28;20063;-79
2021/05/10 13:01:31;;;;;;;7.78;3.35;;;;;;;25.33;42.63;100259.06;5059187;28;20065;-79